sensor_id;sensor_type;location;lat;lon;timestamp;temperature;humidity
32201;DHT22;18701;45.588;5.288;2022-08-07T00:01:07;25.20;89.90
32201;DHT22;18701;45.588;5.288;2022-08-07T00:03:33;25.30;90.10
32201;DHT22;18701;45.588;5.288;2022-08-07T00:05:58;25.10;90.10
32201;DHT22;18701;45.588;5.288;2022-08-07T00:08:24;24.90;90.20
32201;DHT22;18701;45.588;5.288;2022-08-07T00:10:51;24.80;90.50
32201;DHT22;18701;45.588;5.288;2022-08-07T00:13:20;24.90;90.30
32201;DHT22;18701;45.588;5.288;2022-08-07T00:15:46;25.00;90.30
32201;DHT22;18701;45.588;5.288;2022-08-07T00:18:17;24.90;90.40
32201;DHT22;18701;45.588;5.288;2022-08-07T00:20:42;25.00;90.30
32201;DHT22;18701;45.588;5.288;2022-08-07T00:23:08;25.00;90.40
32201;DHT22;18701;45.588;5.288;2022-08-07T00:25:37;25.00;90.60
32201;DHT22;18701;45.588;5.288;2022-08-07T00:28:02;24.80;90.80
32201;DHT22;18701;45.588;5.288;2022-08-07T00:30:28;24.80;90.80
32201;DHT22;18701;45.588;5.288;2022-08-07T00:32:58;24.80;90.80
32201;DHT22;18701;45.588;5.288;2022-08-07T00:35:24;24.90;90.70
32201;DHT22;18701;45.588;5.288;2022-08-07T00:37:50;24.90;90.70
32201;DHT22;18701;45.588;5.288;2022-08-07T00:40:16;24.80;90.90
32201;DHT22;18701;45.588;5.288;2022-08-07T00:42:42;24.70;91.00
32201;DHT22;18701;45.588;5.288;2022-08-07T00:45:10;24.50;91.30
32201;DHT22;18701;45.588;5.288;2022-08-07T00:47:35;24.40;91.50
32201;DHT22;18701;45.588;5.288;2022-08-07T00:50:01;24.50;91.50
32201;DHT22;18701;45.588;5.288;2022-08-07T00:52:28;24.30;90.60
32201;DHT22;18701;45.588;5.288;2022-08-07T00:54:53;24.50;90.60
32201;DHT22;18701;45.588;5.288;2022-08-07T00:57:23;24.50;90.80
32201;DHT22;18701;45.588;5.288;2022-08-07T00:59:52;24.60;90.70
32201;DHT22;18701;45.588;5.288;2022-08-07T01:02:18;24.60;90.60
32201;DHT22;18701;45.588;5.288;2022-08-07T01:04:44;24.60;90.50
32201;DHT22;18701;45.588;5.288;2022-08-07T01:07:10;24.50;90.70
32201;DHT22;18701;45.588;5.288;2022-08-07T01:09:36;24.30;91.70
32201;DHT22;18701;45.588;5.288;2022-08-07T01:12:02;24.30;91.80
32201;DHT22;18701;45.588;5.288;2022-08-07T01:14:28;24.30;91.90
32201;DHT22;18701;45.588;5.288;2022-08-07T01:16:57;24.10;92.20
32201;DHT22;18701;45.588;5.288;2022-08-07T01:19:26;24.00;92.60
32201;DHT22;18701;45.588;5.288;2022-08-07T01:21:53;24.00;92.50
32201;DHT22;18701;45.588;5.288;2022-08-07T01:24:22;23.90;92.70
32201;DHT22;18701;45.588;5.288;2022-08-07T01:26:51;24.00;92.70
32201;DHT22;18701;45.588;5.288;2022-08-07T01:29:18;24.10;92.70
32201;DHT22;18701;45.588;5.288;2022-08-07T01:31:44;24.10;92.80
32201;DHT22;18701;45.588;5.288;2022-08-07T01:34:10;24.10;92.60
32201;DHT22;18701;45.588;5.288;2022-08-07T01:36:36;23.90;92.60
32201;DHT22;18701;45.588;5.288;2022-08-07T01:39:02;23.90;92.50
32201;DHT22;18701;45.588;5.288;2022-08-07T01:41:28;24.10;91.30
32201;DHT22;18701;45.588;5.288;2022-08-07T01:43:57;24.00;92.10
32201;DHT22;18701;45.588;5.288;2022-08-07T01:46:22;24.00;92.30
32201;DHT22;18701;45.588;5.288;2022-08-07T01:48:49;23.80;92.30
32201;DHT22;18701;45.588;5.288;2022-08-07T01:51:22;23.80;92.60
32201;DHT22;18701;45.588;5.288;2022-08-07T01:53:57;23.90;92.40
32201;DHT22;18701;45.588;5.288;2022-08-07T01:56:28;23.60;91.60
32201;DHT22;18701;45.588;5.288;2022-08-07T01:59:12;23.60;92.00
32201;DHT22;18701;45.588;5.288;2022-08-07T02:01:44;23.80;91.50
32201;DHT22;18701;45.588;5.288;2022-08-07T02:04:29;23.70;91.00
32201;DHT22;18701;45.588;5.288;2022-08-07T02:06:56;23.60;91.10
32201;DHT22;18701;45.588;5.288;2022-08-07T02:09:24;23.50;91.00
32201;DHT22;18701;45.588;5.288;2022-08-07T02:11:51;23.50;91.00
32201;DHT22;18701;45.588;5.288;2022-08-07T02:14:18;23.50;90.90
32201;DHT22;18701;45.588;5.288;2022-08-07T02:16:45;23.50;91.00
32201;DHT22;18701;45.588;5.288;2022-08-07T02:19:13;23.30;91.00
32201;DHT22;18701;45.588;5.288;2022-08-07T02:21:41;23.50;91.00
32201;DHT22;18701;45.588;5.288;2022-08-07T02:24:08;23.20;90.90
32201;DHT22;18701;45.588;5.288;2022-08-07T02:26:36;22.90;91.20
32201;DHT22;18701;45.588;5.288;2022-08-07T02:29:05;23.00;91.10
32201;DHT22;18701;45.588;5.288;2022-08-07T02:31:32;22.90;91.10
32201;DHT22;18701;45.588;5.288;2022-08-07T02:34:01;23.00;91.00
32201;DHT22;18701;45.588;5.288;2022-08-07T02:36:29;23.00;90.90
32201;DHT22;18701;45.588;5.288;2022-08-07T02:38:56;23.00;91.00
32201;DHT22;18701;45.588;5.288;2022-08-07T02:41:23;22.80;91.20
32201;DHT22;18701;45.588;5.288;2022-08-07T02:43:50;22.80;91.20
32201;DHT22;18701;45.588;5.288;2022-08-07T02:46:20;22.60;91.50
32201;DHT22;18701;45.588;5.288;2022-08-07T02:48:47;22.70;91.60
32201;DHT22;18701;45.588;5.288;2022-08-07T02:51:17;22.50;91.80
32201;DHT22;18701;45.588;5.288;2022-08-07T02:53:44;22.60;91.80
32201;DHT22;18701;45.588;5.288;2022-08-07T02:56:17;22.80;91.50
32201;DHT22;18701;45.588;5.288;2022-08-07T02:58:45;22.90;91.40
32201;DHT22;18701;45.588;5.288;2022-08-07T03:01:11;22.90;91.40
32201;DHT22;18701;45.588;5.288;2022-08-07T03:03:37;22.70;91.70
32201;DHT22;18701;45.588;5.288;2022-08-07T03:06:03;22.70;91.70
32201;DHT22;18701;45.588;5.288;2022-08-07T03:08:30;22.80;91.70
32201;DHT22;18701;45.588;5.288;2022-08-07T03:10:56;22.60;91.80
32201;DHT22;18701;45.588;5.288;2022-08-07T03:13:22;22.70;91.90
32201;DHT22;18701;45.588;5.288;2022-08-07T03:15:48;22.60;91.90
32201;DHT22;18701;45.588;5.288;2022-08-07T03:18:15;22.60;92.00
32201;DHT22;18701;45.588;5.288;2022-08-07T03:20:41;22.70;92.10
32201;DHT22;18701;45.588;5.288;2022-08-07T03:23:08;22.50;92.00
32201;DHT22;18701;45.588;5.288;2022-08-07T03:25:38;22.50;92.10
32201;DHT22;18701;45.588;5.288;2022-08-07T03:28:06;22.40;92.30
32201;DHT22;18701;45.588;5.288;2022-08-07T03:30:33;22.50;92.40
32201;DHT22;18701;45.588;5.288;2022-08-07T03:33:00;22.50;92.30
32201;DHT22;18701;45.588;5.288;2022-08-07T03:35:28;22.70;92.10
32201;DHT22;18701;45.588;5.288;2022-08-07T03:37:57;22.60;92.10
32201;DHT22;18701;45.588;5.288;2022-08-07T03:40:26;22.50;92.20
32201;DHT22;18701;45.588;5.288;2022-08-07T03:42:53;22.30;92.60
32201;DHT22;18701;45.588;5.288;2022-08-07T03:45:22;22.20;92.50
32201;DHT22;18701;45.588;5.288;2022-08-07T03:47:49;22.30;92.80
32201;DHT22;18701;45.588;5.288;2022-08-07T03:50:16;22.50;92.70
32201;DHT22;18701;45.588;5.288;2022-08-07T03:52:44;22.50;92.60
32201;DHT22;18701;45.588;5.288;2022-08-07T03:55:11;22.20;92.50
32201;DHT22;18701;45.588;5.288;2022-08-07T03:57:37;22.20;92.70
32201;DHT22;18701;45.588;5.288;2022-08-07T04:00:03;22.30;92.70
32201;DHT22;18701;45.588;5.288;2022-08-07T04:02:30;22.10;92.70
32201;DHT22;18701;45.588;5.288;2022-08-07T04:04:56;22.00;92.80
32201;DHT22;18701;45.588;5.288;2022-08-07T04:07:22;22.10;92.70
32201;DHT22;18701;45.588;5.288;2022-08-07T04:09:48;22.10;92.80
32201;DHT22;18701;45.588;5.288;2022-08-07T04:12:15;21.90;93.00
32201;DHT22;18701;45.588;5.288;2022-08-07T04:14:42;21.70;93.00
32201;DHT22;18701;45.588;5.288;2022-08-07T04:17:08;21.60;93.30
32201;DHT22;18701;45.588;5.288;2022-08-07T04:19:34;21.60;93.40
32201;DHT22;18701;45.588;5.288;2022-08-07T04:22:01;21.70;93.40
32201;DHT22;18701;45.588;5.288;2022-08-07T04:24:27;21.50;93.50
32201;DHT22;18701;45.588;5.288;2022-08-07T04:26:53;21.60;93.50
32201;DHT22;18701;45.588;5.288;2022-08-07T04:29:19;21.30;93.40
32201;DHT22;18701;45.588;5.288;2022-08-07T04:31:45;21.50;93.50
32201;DHT22;18701;45.588;5.288;2022-08-07T04:34:11;21.40;93.40
32201;DHT22;18701;45.588;5.288;2022-08-07T04:36:37;21.30;93.50
32201;DHT22;18701;45.588;5.288;2022-08-07T04:39:04;21.00;93.80
32201;DHT22;18701;45.588;5.288;2022-08-07T04:41:30;20.80;94.30
32201;DHT22;18701;45.588;5.288;2022-08-07T04:43:56;21.10;94.10
32201;DHT22;18701;45.588;5.288;2022-08-07T04:46:46;21.30;93.60
32201;DHT22;18701;45.588;5.288;2022-08-07T04:49:33;21.20;93.30
32201;DHT22;18701;45.588;5.288;2022-08-07T04:52:40;21.00;93.30
32201;DHT22;18701;45.588;5.288;2022-08-07T04:55:22;21.10;93.40
32201;DHT22;18701;45.588;5.288;2022-08-07T04:58:05;21.00;92.80
32201;DHT22;18701;45.588;5.288;2022-08-07T05:06:16;20.70;92.90
32201;DHT22;18701;45.588;5.288;2022-08-07T05:11:33;20.80;93.00
32201;DHT22;18701;45.588;5.288;2022-08-07T05:14:09;20.80;93.00
32201;DHT22;18701;45.588;5.288;2022-08-07T05:16:37;20.70;92.90
32201;DHT22;18701;45.588;5.288;2022-08-07T05:19:11;21.10;92.60
32201;DHT22;18701;45.588;5.288;2022-08-07T05:21:37;20.80;92.60
32201;DHT22;18701;45.588;5.288;2022-08-07T05:24:09;20.80;92.60
32201;DHT22;18701;45.588;5.288;2022-08-07T05:26:36;20.80;92.70
32201;DHT22;18701;45.588;5.288;2022-08-07T05:29:06;20.80;92.80
32201;DHT22;18701;45.588;5.288;2022-08-07T05:31:36;20.70;92.70
32201;DHT22;18701;45.588;5.288;2022-08-07T05:34:05;20.90;92.60
32201;DHT22;18701;45.588;5.288;2022-08-07T05:36:32;20.80;92.70
32201;DHT22;18701;45.588;5.288;2022-08-07T05:38:59;20.90;92.50
32201;DHT22;18701;45.588;5.288;2022-08-07T05:41:26;20.60;92.90
32201;DHT22;18701;45.588;5.288;2022-08-07T05:43:53;20.80;92.80
32201;DHT22;18701;45.588;5.288;2022-08-07T05:46:23;20.70;92.90
32201;DHT22;18701;45.588;5.288;2022-08-07T05:48:51;20.80;92.70
32201;DHT22;18701;45.588;5.288;2022-08-07T05:51:17;21.00;92.50
32201;DHT22;18701;45.588;5.288;2022-08-07T05:53:44;21.30;92.20
32201;DHT22;18701;45.588;5.288;2022-08-07T05:56:11;21.20;92.20
32201;DHT22;18701;45.588;5.288;2022-08-07T05:58:38;21.20;92.10
32201;DHT22;18701;45.588;5.288;2022-08-07T06:01:07;21.00;92.50
32201;DHT22;18701;45.588;5.288;2022-08-07T06:03:34;20.70;92.70
32201;DHT22;18701;45.588;5.288;2022-08-07T06:06:01;20.50;93.10
32201;DHT22;18701;45.588;5.288;2022-08-07T06:08:27;20.60;93.00
32201;DHT22;18701;45.588;5.288;2022-08-07T06:10:56;20.80;92.90
32201;DHT22;18701;45.588;5.288;2022-08-07T06:13:22;20.90;92.90
32201;DHT22;18701;45.588;5.288;2022-08-07T06:15:48;20.50;93.10
32201;DHT22;18701;45.588;5.288;2022-08-07T06:18:15;20.40;93.70
32201;DHT22;18701;45.588;5.288;2022-08-07T06:20:43;20.60;93.50
32201;DHT22;18701;45.588;5.288;2022-08-07T06:23:09;20.60;93.50
32201;DHT22;18701;45.588;5.288;2022-08-07T06:25:35;20.70;93.30
32201;DHT22;18701;45.588;5.288;2022-08-07T06:28:05;20.60;93.80
32201;DHT22;18701;45.588;5.288;2022-08-07T06:30:32;20.70;93.30
32201;DHT22;18701;45.588;5.288;2022-08-07T06:32:59;20.40;93.80
32201;DHT22;18701;45.588;5.288;2022-08-07T06:35:25;20.50;94.00
32201;DHT22;18701;45.588;5.288;2022-08-07T06:37:51;20.70;93.60
32201;DHT22;18701;45.588;5.288;2022-08-07T06:40:17;20.50;93.70
32201;DHT22;18701;45.588;5.288;2022-08-07T06:42:45;20.60;93.90
32201;DHT22;18701;45.588;5.288;2022-08-07T06:45:17;20.80;93.50
32201;DHT22;18701;45.588;5.288;2022-08-07T06:47:45;20.90;93.60
32201;DHT22;18701;45.588;5.288;2022-08-07T06:50:12;20.80;93.80
32201;DHT22;18701;45.588;5.288;2022-08-07T06:52:41;21.00;93.80
32201;DHT22;18701;45.588;5.288;2022-08-07T06:55:23;21.30;93.10
32201;DHT22;18701;45.588;5.288;2022-08-07T06:57:52;21.00;93.40
32201;DHT22;18701;45.588;5.288;2022-08-07T07:00:20;20.90;93.70
32201;DHT22;18701;45.588;5.288;2022-08-07T07:02:46;20.80;93.60
32201;DHT22;18701;45.588;5.288;2022-08-07T07:05:12;21.00;93.60
32201;DHT22;18701;45.588;5.288;2022-08-07T07:07:38;20.80;94.10
32201;DHT22;18701;45.588;5.288;2022-08-07T07:10:05;20.80;94.20
32201;DHT22;18701;45.588;5.288;2022-08-07T07:15:24;21.00;94.30
32201;DHT22;18701;45.588;5.288;2022-08-07T07:20:19;21.10;94.30
32201;DHT22;18701;45.588;5.288;2022-08-07T07:22:46;21.00;94.30
32201;DHT22;18701;45.588;5.288;2022-08-07T07:25:14;21.00;94.30
32201;DHT22;18701;45.588;5.288;2022-08-07T07:30:39;21.00;94.30
32201;DHT22;18701;45.588;5.288;2022-08-07T07:33:08;20.80;94.90
32201;DHT22;18701;45.588;5.288;2022-08-07T07:35:35;20.90;94.50
32201;DHT22;18701;45.588;5.288;2022-08-07T07:38:01;21.10;94.40
32201;DHT22;18701;45.588;5.288;2022-08-07T07:40:30;21.10;93.90
32201;DHT22;18701;45.588;5.288;2022-08-07T07:42:56;21.10;94.20
32201;DHT22;18701;45.588;5.288;2022-08-07T07:45:26;21.50;93.90
32201;DHT22;18701;45.588;5.288;2022-08-07T07:47:53;21.70;93.60
32201;DHT22;18701;45.588;5.288;2022-08-07T07:50:26;21.50;93.70
32201;DHT22;18701;45.588;5.288;2022-08-07T07:52:56;21.70;93.60
32201;DHT22;18701;45.588;5.288;2022-08-07T07:55:23;21.70;93.20
32201;DHT22;18701;45.588;5.288;2022-08-07T07:57:53;21.80;93.40
32201;DHT22;18701;45.588;5.288;2022-08-07T08:00:26;21.90;93.20
32201;DHT22;18701;45.588;5.288;2022-08-07T08:02:56;21.70;93.40
32201;DHT22;18701;45.588;5.288;2022-08-07T08:05:22;21.80;93.30
32201;DHT22;18701;45.588;5.288;2022-08-07T08:07:48;22.10;92.80
32201;DHT22;18701;45.588;5.288;2022-08-07T08:10:15;22.10;93.10
32201;DHT22;18701;45.588;5.288;2022-08-07T08:12:44;22.20;92.90
32201;DHT22;18701;45.588;5.288;2022-08-07T08:15:11;22.20;92.90
32201;DHT22;18701;45.588;5.288;2022-08-07T08:17:39;22.40;92.80
32201;DHT22;18701;45.588;5.288;2022-08-07T08:20:07;22.30;92.80
32201;DHT22;18701;45.588;5.288;2022-08-07T08:22:39;22.40;92.80
32201;DHT22;18701;45.588;5.288;2022-08-07T08:25:30;22.30;93.00
32201;DHT22;18701;45.588;5.288;2022-08-07T08:28:25;23.00;92.60
32201;DHT22;18701;45.588;5.288;2022-08-07T08:30:58;23.00;92.00
32201;DHT22;18701;45.588;5.288;2022-08-07T08:33:27;22.80;92.00
32201;DHT22;18701;45.588;5.288;2022-08-07T08:35:54;22.90;92.10
32201;DHT22;18701;45.588;5.288;2022-08-07T08:38:24;22.90;92.00
32201;DHT22;18701;45.588;5.288;2022-08-07T08:41:00;23.10;92.00
32201;DHT22;18701;45.588;5.288;2022-08-07T08:43:30;23.00;92.20
32201;DHT22;18701;45.588;5.288;2022-08-07T08:46:07;23.20;92.00
32201;DHT22;18701;45.588;5.288;2022-08-07T08:48:42;23.20;91.90
32201;DHT22;18701;45.588;5.288;2022-08-07T08:51:16;23.20;91.70
32201;DHT22;18701;45.588;5.288;2022-08-07T08:56:26;23.50;91.70
32201;DHT22;18701;45.588;5.288;2022-08-07T08:59:16;23.50;91.40
32201;DHT22;18701;45.588;5.288;2022-08-07T09:01:59;23.50;91.80
32201;DHT22;18701;45.588;5.288;2022-08-07T09:04:46;23.80;91.40
32201;DHT22;18701;45.588;5.288;2022-08-07T09:10:41;24.00;91.70
32201;DHT22;18701;45.588;5.288;2022-08-07T09:26:50;24.30;90.60
32201;DHT22;18701;45.588;5.288;2022-08-07T09:35:19;24.30;90.40
32201;DHT22;18701;45.588;5.288;2022-08-07T09:40:41;24.30;90.80
32201;DHT22;18701;45.588;5.288;2022-08-07T09:54:18;25.00;89.40
32201;DHT22;18701;45.588;5.288;2022-08-07T10:00:00;25.20;88.20
32201;DHT22;18701;45.588;5.288;2022-08-07T10:05:43;25.40;87.60
32201;DHT22;18701;45.588;5.288;2022-08-07T10:19:05;25.90;87.30
32201;DHT22;18701;45.588;5.288;2022-08-07T10:27:19;26.30;86.40
32201;DHT22;18701;45.588;5.288;2022-08-07T10:30:06;26.30;85.70
32201;DHT22;18701;45.588;5.288;2022-08-07T10:32:49;26.60;85.40
32201;DHT22;18701;45.588;5.288;2022-08-07T10:35:34;26.50;84.90
32201;DHT22;18701;45.588;5.288;2022-08-07T10:41:08;26.50;85.10
32201;DHT22;18701;45.588;5.288;2022-08-07T10:43:47;26.60;84.90
32201;DHT22;18701;45.588;5.288;2022-08-07T10:46:18;26.70;84.70
32201;DHT22;18701;45.588;5.288;2022-08-07T10:51:47;26.90;83.60
32201;DHT22;18701;45.588;5.288;2022-08-07T10:54:18;26.80;84.70
32201;DHT22;18701;45.588;5.288;2022-08-07T11:00:05;27.60;84.10
32201;DHT22;18701;45.588;5.288;2022-08-07T11:02:49;27.50;82.90
32201;DHT22;18701;45.588;5.288;2022-08-07T11:05:54;27.50;82.50
32201;DHT22;18701;45.588;5.288;2022-08-07T11:11:13;27.90;82.20
32201;DHT22;18701;45.588;5.288;2022-08-07T11:16:16;28.10;81.30
32201;DHT22;18701;45.588;5.288;2022-08-07T11:19:04;27.90;80.90
32201;DHT22;18701;45.588;5.288;2022-08-07T11:21:41;28.00;81.40
32201;DHT22;18701;45.588;5.288;2022-08-07T11:24:12;28.10;81.00
32201;DHT22;18701;45.588;5.288;2022-08-07T11:27:02;28.00;81.40
32201;DHT22;18701;45.588;5.288;2022-08-07T11:29:43;28.40;81.00
32201;DHT22;18701;45.588;5.288;2022-08-07T11:32:15;28.30;80.40
32201;DHT22;18701;45.588;5.288;2022-08-07T11:34:55;28.30;79.90
32201;DHT22;18701;45.588;5.288;2022-08-07T11:40:53;29.00;79.80
32201;DHT22;18701;45.588;5.288;2022-08-07T11:48:59;28.70;79.40
32201;DHT22;18701;45.588;5.288;2022-08-07T12:08:01;29.40;78.00
32201;DHT22;18701;45.588;5.288;2022-08-07T12:10:53;29.70;77.90
32201;DHT22;18701;45.588;5.288;2022-08-07T12:16:03;29.90;77.60
32201;DHT22;18701;45.588;5.288;2022-08-07T12:21:57;30.20;76.90
32201;DHT22;18701;45.588;5.288;2022-08-07T12:27:15;30.10;76.60
32201;DHT22;18701;45.588;5.288;2022-08-07T12:29:58;30.60;76.00
32201;DHT22;18701;45.588;5.288;2022-08-07T12:35:18;30.80;76.10
32201;DHT22;18701;45.588;5.288;2022-08-07T12:37:49;31.00;76.20
32201;DHT22;18701;45.588;5.288;2022-08-07T12:40:20;31.00;75.90
32201;DHT22;18701;45.588;5.288;2022-08-07T12:42:47;30.60;75.70
32201;DHT22;18701;45.588;5.288;2022-08-07T12:45:20;30.30;76.50
32201;DHT22;18701;45.588;5.288;2022-08-07T12:50:36;30.50;76.20
32201;DHT22;18701;45.588;5.288;2022-08-07T12:53:29;30.60;76.10
32201;DHT22;18701;45.588;5.288;2022-08-07T12:56:20;30.40;76.60
32201;DHT22;18701;45.588;5.288;2022-08-07T12:58:48;30.50;76.00
32201;DHT22;18701;45.588;5.288;2022-08-07T13:04:02;30.80;76.10
32201;DHT22;18701;45.588;5.288;2022-08-07T13:09:16;31.70;75.00
32201;DHT22;18701;45.588;5.288;2022-08-07T13:11:56;32.20;74.70
32201;DHT22;18701;45.588;5.288;2022-08-07T13:14:50;32.00;75.20
32201;DHT22;18701;45.588;5.288;2022-08-07T13:17:26;32.20;74.40
32201;DHT22;18701;45.588;5.288;2022-08-07T13:20:08;31.80;74.10
32201;DHT22;18701;45.588;5.288;2022-08-07T13:22:40;31.90;73.90
32201;DHT22;18701;45.588;5.288;2022-08-07T13:25:17;31.60;74.00
32201;DHT22;18701;45.588;5.288;2022-08-07T13:27:57;31.20;74.70
32201;DHT22;18701;45.588;5.288;2022-08-07T13:30:26;31.70;74.40
32201;DHT22;18701;45.588;5.288;2022-08-07T13:35:53;32.50;73.90
32201;DHT22;18701;45.588;5.288;2022-08-07T13:43:47;32.30;73.50
32201;DHT22;18701;45.588;5.288;2022-08-07T13:46:15;31.70;72.90
32201;DHT22;18701;45.588;5.288;2022-08-07T13:48:48;32.30;73.40
32201;DHT22;18701;45.588;5.288;2022-08-07T13:51:17;32.30;72.80
32201;DHT22;18701;45.588;5.288;2022-08-07T13:53:52;32.40;72.80
32201;DHT22;18701;45.588;5.288;2022-08-07T13:56:21;32.10;73.40
32201;DHT22;18701;45.588;5.288;2022-08-07T13:58:50;31.60;72.70
32201;DHT22;18701;45.588;5.288;2022-08-07T14:01:32;32.20;73.40
32201;DHT22;18701;45.588;5.288;2022-08-07T14:04:09;32.30;73.10
32201;DHT22;18701;45.588;5.288;2022-08-07T14:06:39;32.50;72.80
32201;DHT22;18701;45.588;5.288;2022-08-07T14:09:24;32.50;72.60
32201;DHT22;18701;45.588;5.288;2022-08-07T14:11:57;32.50;72.30
32201;DHT22;18701;45.588;5.288;2022-08-07T14:14:47;32.20;72.60
32201;DHT22;18701;45.588;5.288;2022-08-07T14:17:17;32.70;72.60
32201;DHT22;18701;45.588;5.288;2022-08-07T14:19:51;32.30;72.80
32201;DHT22;18701;45.588;5.288;2022-08-07T14:22:22;32.10;72.80
32201;DHT22;18701;45.588;5.288;2022-08-07T14:24:53;32.10;73.20
32201;DHT22;18701;45.588;5.288;2022-08-07T14:27:34;32.50;72.90
32201;DHT22;18701;45.588;5.288;2022-08-07T14:30:05;32.50;73.10
32201;DHT22;18701;45.588;5.288;2022-08-07T14:32:36;32.80;72.70
32201;DHT22;18701;45.588;5.288;2022-08-07T14:35:04;33.00;72.20
32201;DHT22;18701;45.588;5.288;2022-08-07T14:37:30;33.40;72.50
32201;DHT22;18701;45.588;5.288;2022-08-07T14:39:57;33.00;71.50
32201;DHT22;18701;45.588;5.288;2022-08-07T14:42:26;32.70;72.00
32201;DHT22;18701;45.588;5.288;2022-08-07T14:44:57;32.70;71.80
32201;DHT22;18701;45.588;5.288;2022-08-07T14:47:26;32.80;72.20
32201;DHT22;18701;45.588;5.288;2022-08-07T14:49:58;32.60;72.00
32201;DHT22;18701;45.588;5.288;2022-08-07T14:52:30;33.50;72.10
32201;DHT22;18701;45.588;5.288;2022-08-07T14:54:58;33.40;72.10
32201;DHT22;18701;45.588;5.288;2022-08-07T14:57:30;33.70;71.70
32201;DHT22;18701;45.588;5.288;2022-08-07T14:59:57;33.90;71.30
32201;DHT22;18701;45.588;5.288;2022-08-07T15:02:25;33.70;71.40
32201;DHT22;18701;45.588;5.288;2022-08-07T15:04:51;33.50;71.90
32201;DHT22;18701;45.588;5.288;2022-08-07T15:07:22;33.60;70.80
32201;DHT22;18701;45.588;5.288;2022-08-07T15:09:50;33.70;71.20
32201;DHT22;18701;45.588;5.288;2022-08-07T15:12:27;33.90;70.80
32201;DHT22;18701;45.588;5.288;2022-08-07T15:15:07;33.90;70.60
32201;DHT22;18701;45.588;5.288;2022-08-07T15:17:39;34.00;70.30
32201;DHT22;18701;45.588;5.288;2022-08-07T15:20:10;33.00;70.70
32201;DHT22;18701;45.588;5.288;2022-08-07T15:22:52;34.20;71.10
32201;DHT22;18701;45.588;5.288;2022-08-07T15:25:24;34.50;70.40
32201;DHT22;18701;45.588;5.288;2022-08-07T15:27:56;34.80;69.70
32201;DHT22;18701;45.588;5.288;2022-08-07T15:30:24;34.90;69.80
32201;DHT22;18701;45.588;5.288;2022-08-07T15:32:53;34.10;69.70
32201;DHT22;18701;45.588;5.288;2022-08-07T15:35:26;33.60;70.40
32201;DHT22;18701;45.588;5.288;2022-08-07T15:37:57;33.60;70.10
32201;DHT22;18701;45.588;5.288;2022-08-07T15:40:30;34.10;69.30
32201;DHT22;18701;45.588;5.288;2022-08-07T15:45:42;33.40;69.80
32201;DHT22;18701;45.588;5.288;2022-08-07T15:50:39;32.80;68.80
32201;DHT22;18701;45.588;5.288;2022-08-07T15:53:10;32.80;68.80
32201;DHT22;18701;45.588;5.288;2022-08-07T15:55:41;32.90;69.00
32201;DHT22;18701;45.588;5.288;2022-08-07T15:58:10;32.90;68.20
32201;DHT22;18701;45.588;5.288;2022-08-07T16:00:37;33.30;68.90
32201;DHT22;18701;45.588;5.288;2022-08-07T16:03:16;33.20;67.90
32201;DHT22;18701;45.588;5.288;2022-08-07T16:05:45;33.50;68.30
32201;DHT22;18701;45.588;5.288;2022-08-07T16:08:15;34.00;67.50
32201;DHT22;18701;45.588;5.288;2022-08-07T16:10:44;34.20;66.50
32201;DHT22;18701;45.588;5.288;2022-08-07T16:24:32;33.40;66.40
32201;DHT22;18701;45.588;5.288;2022-08-07T16:29:38;32.30;67.10
32201;DHT22;18701;45.588;5.288;2022-08-07T16:32:16;32.70;67.40
32201;DHT22;18701;45.588;5.288;2022-08-07T16:34:52;32.20;67.00
32201;DHT22;18701;45.588;5.288;2022-08-07T16:57:44;34.50;65.60
32201;DHT22;18701;45.588;5.288;2022-08-07T17:00:17;33.90;65.20
32201;DHT22;18701;45.588;5.288;2022-08-07T17:05:54;34.10;65.50
32201;DHT22;18701;45.588;5.288;2022-08-07T17:11:11;35.00;65.30
32201;DHT22;18701;45.588;5.288;2022-08-07T17:13:43;34.40;65.20
32201;DHT22;18701;45.588;5.288;2022-08-07T17:16:24;34.30;65.90
32201;DHT22;18701;45.588;5.288;2022-08-07T17:21:25;34.50;64.60
32201;DHT22;18701;45.588;5.288;2022-08-07T17:27:17;35.60;64.80
32201;DHT22;18701;45.588;5.288;2022-08-07T17:30:06;34.60;64.00
32201;DHT22;18701;45.588;5.288;2022-08-07T17:35:30;33.60;65.10
32201;DHT22;18701;45.588;5.288;2022-08-07T17:41:13;33.80;65.40
32201;DHT22;18701;45.588;5.288;2022-08-07T17:43:31;33.70;65.70
32201;DHT22;18701;45.588;5.288;2022-08-07T17:46:16;33.00;65.80
32201;DHT22;18701;45.588;5.288;2022-08-07T17:49:13;32.40;66.40
32201;DHT22;18701;45.588;5.288;2022-08-07T17:51:55;32.50;66.40
32201;DHT22;18701;45.588;5.288;2022-08-07T17:54:23;32.20;66.70
32201;DHT22;18701;45.588;5.288;2022-08-07T17:57:05;31.80;66.90
32201;DHT22;18701;45.588;5.288;2022-08-07T17:59:51;31.30;67.20
32201;DHT22;18701;45.588;5.288;2022-08-07T18:02:41;30.70;67.60
32201;DHT22;18701;45.588;5.288;2022-08-07T18:05:22;31.00;68.60
32201;DHT22;18701;45.588;5.288;2022-08-07T18:10:49;31.00;68.80
32201;DHT22;18701;45.588;5.288;2022-08-07T18:13:24;30.40;68.50
32201;DHT22;18701;45.588;5.288;2022-08-07T18:18:47;30.50;69.20
32201;DHT22;18701;45.588;5.288;2022-08-07T18:30:10;29.80;69.50
32201;DHT22;18701;45.588;5.288;2022-08-07T18:39:47;29.60;69.90
32201;DHT22;18701;45.588;5.288;2022-08-07T18:47:57;29.40;69.90
32201;DHT22;18701;45.588;5.288;2022-08-07T18:53:51;29.20;70.20
32201;DHT22;18701;45.588;5.288;2022-08-07T18:59:37;29.10;70.60
32201;DHT22;18701;45.588;5.288;2022-08-07T19:10:23;29.20;70.40
32201;DHT22;18701;45.588;5.288;2022-08-07T19:24:05;29.00;71.20
32201;DHT22;18701;45.588;5.288;2022-08-07T19:26:40;28.90;70.80
32201;DHT22;18701;45.588;5.288;2022-08-07T19:29:07;28.90;71.30
32201;DHT22;18701;45.588;5.288;2022-08-07T19:31:36;28.90;71.60
32201;DHT22;18701;45.588;5.288;2022-08-07T19:34:06;29.00;71.60
32201;DHT22;18701;45.588;5.288;2022-08-07T19:36:41;28.90;71.80
32201;DHT22;18701;45.588;5.288;2022-08-07T19:39:10;28.70;72.10
32201;DHT22;18701;45.588;5.288;2022-08-07T19:41:42;28.70;72.50
32201;DHT22;18701;45.588;5.288;2022-08-07T19:44:08;28.70;72.50
32201;DHT22;18701;45.588;5.288;2022-08-07T19:46:39;28.60;72.90
32201;DHT22;18701;45.588;5.288;2022-08-07T19:49:18;28.40;73.60
32201;DHT22;18701;45.588;5.288;2022-08-07T19:51:46;28.40;73.90
32201;DHT22;18701;45.588;5.288;2022-08-07T19:54:13;28.30;74.30
32201;DHT22;18701;45.588;5.288;2022-08-07T19:56:45;28.20;74.40
32201;DHT22;18701;45.588;5.288;2022-08-07T19:59:27;28.10;74.10
32201;DHT22;18701;45.588;5.288;2022-08-07T20:01:57;28.20;74.30
32201;DHT22;18701;45.588;5.288;2022-08-07T20:04:34;28.20;73.80
32201;DHT22;18701;45.588;5.288;2022-08-07T20:07:03;28.30;73.60
32201;DHT22;18701;45.588;5.288;2022-08-07T20:09:30;28.20;74.00
32201;DHT22;18701;45.588;5.288;2022-08-07T20:11:58;28.20;74.30